createdAt,value
2024-02-05T00:00:26.317Z,0.77
2024-02-05T00:02:55.100Z,1.08
2024-02-05T00:05:24.635Z,1.30
2024-02-05T00:07:56.590Z,1.00
2024-02-05T00:10:29.656Z,1.20
2024-02-05T00:12:58.600Z,0.90
2024-02-05T00:15:27.543Z,1.20
2024-02-05T00:17:56.518Z,1.05
2024-02-05T00:20:25.269Z,1.20
2024-02-05T00:22:54.020Z,0.93
2024-02-05T00:25:23.761Z,0.70
2024-02-05T00:30:22.833Z,0.98
2024-02-05T00:32:51.756Z,1.42
2024-02-05T00:35:20.477Z,0.95
2024-02-05T00:37:49.741Z,0.82
2024-02-05T00:40:19.196Z,0.80
2024-02-05T00:42:47.967Z,0.95
2024-02-05T00:45:19.645Z,1.42
2024-02-05T00:47:48.553Z,1.00
2024-02-05T00:50:17.281Z,0.95
2024-02-05T00:52:46.214Z,0.80
2024-02-05T00:55:15.099Z,0.70
2024-02-05T00:57:43.909Z,0.70
2024-02-05T01:00:13.944Z,1.10
2024-02-05T01:02:44.118Z,0.95
2024-02-05T01:05:13.154Z,1.00
2024-02-05T01:07:42.086Z,0.90
2024-02-05T01:10:12.081Z,0.98
2024-02-05T01:12:41.006Z,0.90
2024-02-05T01:15:10.180Z,0.77
2024-02-05T01:17:38.951Z,1.25
2024-02-05T01:20:12.429Z,1.10
2024-02-05T01:22:41.654Z,1.40
2024-02-05T01:25:10.874Z,1.48
2024-02-05T01:27:39.795Z,1.00
2024-02-05T01:30:09.670Z,1.30
2024-02-05T01:32:38.900Z,1.45
2024-02-05T01:35:09.675Z,1.30
2024-02-05T01:37:38.795Z,0.80
2024-02-05T01:40:11.893Z,1.10
2024-02-05T01:42:42.566Z,0.88
2024-02-05T01:45:12.117Z,1.17
2024-02-05T01:47:43.625Z,0.80
2024-02-05T01:50:16.198Z,0.70
2024-02-05T01:52:50.125Z,0.68
2024-02-05T01:55:22.475Z,1.55
2024-02-05T01:57:53.196Z,1.35
2024-02-05T02:00:23.344Z,0.98
2024-02-05T02:02:52.620Z,1.40
2024-02-05T02:05:23.811Z,1.58
2024-02-05T02:07:53.450Z,1.20
2024-02-05T02:10:22.313Z,1.25
2024-02-05T02:12:51.121Z,1.63
2024-02-05T02:15:20.265Z,1.40
2024-02-05T02:17:53.375Z,1.98
2024-02-05T02:20:27.018Z,1.40
2024-02-05T02:23:00.358Z,1.00
2024-02-05T02:25:32.556Z,1.55
2024-02-05T02:28:01.475Z,1.40
2024-02-05T02:30:31.794Z,1.40
2024-02-05T02:33:09.699Z,1.63
2024-02-05T02:35:46.859Z,1.40
2024-02-05T02:38:20.943Z,1.55
2024-02-05T02:41:03.836Z,1.40
2024-02-05T02:43:37.426Z,1.50
2024-02-05T02:46:08.546Z,1.58
2024-02-05T02:48:37.699Z,1.25
2024-02-05T02:51:07.308Z,1.65
2024-02-05T02:53:36.076Z,1.98
2024-02-05T02:56:07.135Z,1.35
2024-02-05T02:58:35.837Z,1.23
2024-02-05T03:01:06.245Z,1.50
2024-02-05T03:03:35.830Z,2.80
2024-02-05T03:06:04.619Z,1.77
2024-02-05T03:08:33.374Z,2.00
2024-02-05T03:11:02.063Z,1.83
2024-02-05T03:13:32.269Z,2.30
2024-02-05T03:16:01.134Z,1.55
2024-02-05T03:18:30.158Z,1.90
2024-02-05T03:20:58.913Z,2.22
2024-02-05T03:23:27.613Z,2.22
2024-02-05T03:25:56.355Z,1.77
2024-02-05T03:28:28.605Z,1.60
2024-02-05T03:30:59.490Z,2.40
2024-02-05T03:33:28.276Z,1.75
2024-02-05T03:35:57.072Z,1.98
2024-02-05T03:38:26.130Z,1.50
2024-02-05T03:40:54.862Z,1.40
2024-02-05T03:43:23.701Z,1.33
2024-02-05T03:45:52.453Z,1.55
2024-02-05T03:48:23.557Z,2.17
2024-02-05T03:50:52.273Z,1.80
2024-02-05T03:53:21.333Z,1.75
2024-02-05T03:55:50.046Z,1.58
2024-02-05T03:58:18.750Z,1.42
2024-02-05T04:00:47.598Z,2.20
2024-02-05T04:03:16.823Z,1.58
2024-02-05T04:05:47.321Z,2.00
2024-02-05T04:08:16.737Z,2.15
2024-02-05T04:10:45.534Z,2.55
2024-02-05T04:13:14.351Z,1.70
2024-02-05T04:15:45.958Z,2.20
2024-02-05T04:18:19.932Z,1.65
2024-02-05T04:20:53.848Z,1.83
2024-02-05T04:23:22.709Z,2.00
2024-02-05T04:25:51.470Z,1.63
2024-02-05T04:28:20.367Z,1.63
2024-02-05T04:30:51.625Z,2.15
2024-02-05T04:33:20.492Z,1.80
2024-02-05T04:35:50.662Z,2.03
2024-02-05T04:38:19.600Z,1.60
2024-02-05T04:40:48.387Z,1.77
2024-02-05T04:43:17.319Z,1.90
2024-02-05T04:45:46.187Z,2.03
2024-02-05T04:48:21.393Z,1.90
2024-02-05T04:50:52.007Z,1.90
2024-02-05T04:53:20.832Z,1.85
2024-02-05T04:55:50.092Z,1.80
2024-02-05T04:58:18.917Z,2.00
2024-02-05T05:00:50.488Z,1.92
2024-02-05T05:03:19.353Z,1.80
2024-02-05T05:05:48.169Z,2.58
2024-02-05T05:08:18.228Z,2.05
2024-02-05T05:10:47.071Z,1.60
2024-02-05T05:13:15.984Z,1.55
2024-02-05T05:15:44.798Z,1.80
2024-02-05T05:18:13.796Z,2.00
2024-02-05T05:20:44.630Z,1.85
2024-02-05T05:23:13.380Z,2.25
2024-02-05T05:25:43.907Z,1.70
2024-02-05T05:28:13.036Z,1.98
2024-02-05T05:30:41.750Z,2.25
2024-02-05T05:33:10.566Z,2.00
2024-02-05T05:35:39.420Z,1.95
2024-02-05T05:38:08.232Z,2.28
2024-02-05T05:40:37.285Z,2.20
2024-02-05T05:43:07.608Z,2.15
2024-02-05T05:45:36.399Z,2.33
2024-02-05T05:48:07.401Z,2.05
2024-02-05T05:50:36.345Z,1.80
2024-02-05T05:53:05.250Z,2.35
2024-02-05T05:55:34.078Z,2.47
2024-02-05T05:58:02.930Z,2.20
2024-02-05T06:00:33.144Z,2.47
2024-02-05T06:03:02.071Z,2.20
2024-02-05T06:05:31.012Z,2.00
2024-02-05T06:07:59.894Z,2.95
2024-02-05T06:10:28.840Z,2.60
2024-02-05T06:12:59.419Z,2.50
2024-02-05T06:15:28.196Z,2.33
2024-02-05T06:17:58.419Z,2.65
2024-02-05T06:20:27.375Z,2.50
2024-02-05T06:22:56.122Z,2.42
2024-02-05T06:25:24.967Z,2.38
2024-02-05T06:27:52.876Z,2.38
2024-02-05T06:30:21.875Z,3.20
2024-02-05T06:32:50.802Z,2.45
2024-02-05T06:35:20.975Z,3.05
2024-02-05T06:37:49.821Z,2.85
2024-02-05T06:40:19.037Z,2.70
2024-02-05T06:42:48.002Z,2.38
2024-02-05T06:45:17.860Z,2.85
2024-02-05T06:47:46.719Z,2.63
2024-02-05T06:50:15.870Z,2.00
2024-02-05T06:52:46.818Z,2.72
2024-02-05T06:55:15.759Z,2.55
2024-02-05T06:57:44.605Z,2.90
2024-02-05T07:00:14.426Z,3.20
2024-02-05T07:02:43.587Z,3.53
2024-02-05T07:05:12.975Z,3.28
2024-02-05T07:07:43.292Z,2.83
2024-02-05T07:10:13.992Z,3.05
2024-02-05T07:12:42.745Z,2.22
2024-02-05T07:15:12.211Z,2.15
2024-02-05T07:17:40.976Z,2.20
2024-02-05T07:20:10.509Z,2.63
2024-02-05T07:25:08.737Z,1.70
2024-02-05T07:30:10.061Z,1.80
2024-02-05T07:32:38.981Z,1.75
2024-02-05T07:35:08.965Z,2.10
2024-02-05T07:37:39.052Z,2.53
2024-02-05T07:40:09.293Z,1.88
2024-02-05T07:42:40.386Z,1.90
2024-02-05T07:45:09.743Z,2.00
2024-02-05T07:47:38.647Z,1.80
2024-02-05T07:50:10.398Z,1.77
2024-02-05T07:52:39.204Z,2.22
2024-02-05T07:55:09.020Z,2.55
2024-02-05T07:57:40.033Z,2.17
2024-02-05T08:00:10.071Z,2.78
2024-02-05T08:02:42.674Z,2.42
2024-02-05T08:05:11.634Z,2.13
2024-02-05T08:07:40.837Z,2.05
2024-02-05T08:10:10.461Z,2.17
2024-02-05T08:12:40.714Z,2.25
2024-02-05T08:15:10.630Z,1.98
2024-02-05T08:17:39.622Z,2.30
2024-02-05T08:20:10.941Z,1.70
2024-02-05T08:22:39.972Z,1.98
2024-02-05T08:25:09.639Z,1.70
2024-02-05T08:27:38.526Z,1.90
2024-02-05T08:30:10.247Z,2.20
2024-02-05T08:32:39.100Z,2.15
2024-02-05T08:35:08.522Z,1.98
2024-02-05T08:37:37.516Z,2.40
2024-02-05T08:40:08.181Z,2.17
2024-02-05T08:42:37.096Z,2.25
2024-02-05T08:45:06.677Z,2.20
2024-02-05T08:47:36.920Z,2.17
2024-02-05T08:50:06.431Z,2.20
2024-02-05T08:52:35.296Z,2.15
2024-02-05T08:55:04.344Z,1.85
2024-02-05T08:57:33.210Z,1.95
2024-02-05T09:00:02.008Z,2.05
2024-02-05T09:02:34.585Z,3.40
2024-02-05T09:05:05.443Z,1.90
2024-02-05T09:07:35.774Z,2.58
2024-02-05T09:10:04.855Z,2.38
2024-02-05T09:12:34.003Z,2.25
2024-02-05T09:15:05.134Z,2.33
2024-02-05T09:17:37.094Z,2.30
2024-02-05T09:20:08.585Z,2.42
2024-02-05T09:22:37.649Z,2.72
2024-02-05T09:25:07.242Z,2.20
2024-02-05T09:30:07.752Z,2.20
2024-02-05T09:32:39.026Z,2.17
2024-02-05T09:35:09.829Z,2.70
2024-02-05T09:37:38.669Z,2.70
2024-02-05T09:40:09.105Z,2.45
2024-02-05T09:42:38.526Z,2.33
2024-02-05T09:45:13.189Z,2.72
2024-02-05T09:47:43.682Z,2.25
2024-02-05T09:50:14.619Z,2.45
2024-02-05T09:52:46.720Z,1.70
2024-02-05T09:55:16.241Z,2.53
2024-02-05T09:57:46.047Z,2.45
2024-02-05T10:00:15.586Z,2.67
2024-02-05T10:02:45.319Z,2.50
2024-02-05T10:07:50.070Z,2.20
2024-02-05T10:10:23.664Z,1.88
2024-02-05T10:12:54.757Z,1.98
2024-02-05T10:15:23.817Z,2.33
2024-02-05T10:17:52.781Z,2.05
2024-02-05T10:20:34.452Z,2.13
2024-02-05T10:23:03.368Z,2.45
2024-02-05T10:25:32.215Z,2.78
2024-02-05T10:28:05.314Z,2.30
2024-02-05T10:30:34.338Z,2.85
2024-02-05T10:33:04.954Z,2.00
2024-02-05T10:35:35.567Z,2.58
2024-02-05T10:38:11.555Z,2.47
2024-02-05T10:40:40.729Z,2.47
2024-02-05T10:43:10.851Z,2.47
2024-02-05T10:45:42.291Z,2.33
2024-02-05T10:48:12.717Z,2.40
2024-02-05T10:50:44.769Z,1.90
2024-02-05T10:53:15.748Z,2.17
2024-02-05T10:55:46.190Z,2.75
2024-02-05T10:58:16.208Z,3.00
2024-02-05T11:00:45.619Z,2.33
2024-02-05T11:03:19.020Z,2.45
2024-02-05T11:05:56.029Z,2.53
2024-02-05T11:08:27.200Z,2.80
2024-02-05T11:11:03.764Z,2.20
2024-02-05T11:13:36.895Z,2.25
2024-02-05T11:16:06.949Z,2.45
2024-02-05T11:18:38.950Z,2.50
2024-02-05T11:21:11.023Z,2.40
2024-02-05T11:23:40.798Z,2.63
2024-02-05T11:26:09.668Z,2.22
2024-02-05T11:28:39.107Z,1.90
2024-02-05T11:31:11.963Z,2.60
2024-02-05T11:33:42.237Z,1.98
2024-02-05T11:36:14.379Z,1.90
2024-02-05T11:38:44.496Z,1.70
2024-02-05T11:41:13.453Z,2.08
2024-02-05T11:43:42.338Z,2.00
2024-02-05T11:46:12.887Z,1.63
2024-02-05T11:48:44.119Z,1.73
2024-02-05T11:51:16.679Z,1.50
2024-02-05T11:53:48.708Z,1.42
2024-02-05T11:56:17.528Z,1.83
2024-02-05T11:58:47.002Z,1.70
2024-02-05T12:01:17.255Z,1.70
2024-02-05T12:03:47.218Z,1.52
2024-02-05T12:06:18.483Z,2.55
2024-02-05T12:08:48.750Z,2.05
2024-02-05T12:11:19.237Z,2.05
2024-02-05T12:13:58.762Z,2.33
2024-02-05T12:16:29.418Z,1.67
2024-02-05T12:19:10.997Z,1.80
2024-02-05T12:21:43.415Z,1.80
2024-02-05T12:24:12.405Z,1.38
2024-02-05T12:26:58.437Z,1.40
2024-02-05T12:29:27.368Z,1.40
2024-02-05T12:32:15.233Z,2.00
2024-02-05T12:34:46.712Z,1.98
2024-02-05T12:37:17.234Z,1.80
2024-02-05T12:39:52.634Z,2.05
2024-02-05T12:42:40.233Z,1.60
2024-02-05T12:45:15.803Z,2.10
2024-02-05T12:47:45.870Z,1.67
2024-02-05T12:50:16.171Z,2.28
2024-02-05T12:52:46.918Z,1.42
2024-02-05T12:55:15.948Z,1.70
2024-02-05T12:57:44.880Z,1.25
2024-02-05T13:00:15.603Z,1.70
2024-02-05T13:02:44.384Z,1.70
2024-02-05T13:05:13.552Z,2.00
2024-02-05T13:07:43.020Z,1.63
2024-02-05T13:10:15.071Z,2.10
2024-02-05T13:12:43.934Z,1.40
2024-02-05T13:15:13.066Z,1.73
2024-02-05T13:17:44.624Z,1.63
2024-02-05T13:20:14.192Z,1.40
2024-02-05T13:23:01.352Z,1.38
2024-02-05T13:25:33.310Z,1.83
2024-02-05T13:28:19.903Z,2.45
2024-02-05T13:30:50.377Z,2.00
2024-02-05T13:33:19.351Z,1.70
2024-02-05T13:36:05.381Z,1.42
2024-02-05T13:38:34.961Z,1.50
2024-02-05T13:41:24.513Z,1.45
2024-02-05T13:43:53.270Z,1.77
2024-02-05T13:46:22.046Z,1.02
2024-02-05T13:49:09.725Z,2.65
2024-02-05T13:51:38.689Z,1.17
2024-02-05T13:54:08.044Z,1.73
2024-02-05T13:56:39.000Z,1.55
2024-02-05T13:59:08.840Z,1.48
2024-02-05T14:01:37.684Z,1.92
2024-02-05T14:04:06.655Z,0.98
2024-02-05T14:06:35.610Z,1.02
2024-02-05T14:09:05.226Z,1.45
2024-02-05T14:11:33.970Z,1.67
2024-02-05T14:14:22.943Z,1.70
2024-02-05T14:16:52.113Z,1.33
2024-02-05T14:19:20.934Z,1.50
2024-02-05T14:21:50.296Z,1.33
2024-02-05T14:24:36.440Z,1.40
2024-02-05T14:27:06.210Z,1.10
2024-02-05T14:29:37.166Z,1.70
2024-02-05T14:32:24.200Z,2.20
2024-02-05T14:34:53.058Z,1.90
2024-02-05T14:37:40.174Z,1.55
2024-02-05T14:40:11.745Z,1.63
2024-02-05T14:42:41.186Z,1.75
2024-02-05T14:45:13.376Z,1.67
2024-02-05T14:47:43.369Z,1.42
2024-02-05T14:50:13.456Z,1.77
2024-02-05T14:52:42.560Z,2.78
2024-02-05T14:55:11.488Z,1.67
2024-02-05T14:57:59.968Z,1.52
2024-02-05T15:00:30.233Z,1.20
2024-02-05T15:03:17.417Z,1.45
2024-02-05T15:05:51.229Z,1.27
2024-02-05T15:08:20.230Z,1.63
2024-02-05T15:10:49.092Z,1.30
2024-02-05T15:13:18.025Z,1.40
2024-02-05T15:15:48.461Z,1.60
2024-02-05T15:18:17.927Z,2.17
2024-02-05T15:20:48.935Z,1.90
2024-02-05T15:23:17.881Z,1.95
2024-02-05T15:25:46.813Z,1.50
2024-02-05T15:28:15.620Z,1.30
2024-02-05T15:31:05.660Z,1.90
2024-02-05T15:33:47.284Z,2.40
2024-02-05T15:36:35.712Z,2.05
2024-02-05T15:39:11.664Z,2.00
2024-02-05T15:41:43.026Z,2.10
2024-02-05T15:44:19.850Z,1.88
2024-02-05T15:46:52.908Z,2.25
2024-02-05T15:49:24.600Z,1.92
2024-02-05T15:51:56.377Z,1.70
2024-02-05T15:54:25.189Z,1.50
2024-02-05T15:56:54.079Z,1.67
2024-02-05T15:59:27.738Z,1.58
2024-02-05T16:01:58.091Z,1.92
2024-02-05T16:04:33.233Z,0.98
2024-02-05T16:07:02.142Z,1.60
2024-02-05T16:09:31.053Z,1.65
2024-02-05T16:12:10.115Z,1.70
2024-02-05T16:14:41.889Z,1.42
2024-02-05T16:17:12.040Z,1.73
2024-02-05T16:19:40.914Z,0.90
2024-02-05T16:22:09.977Z,0.90
2024-02-05T16:24:39.758Z,1.05
2024-02-05T16:29:37.999Z,1.20
2024-02-05T16:32:07.368Z,1.00
2024-02-05T16:34:37.783Z,0.80
2024-02-05T16:37:08.121Z,0.85
2024-02-05T16:39:36.955Z,0.70
2024-02-05T16:42:06.119Z,0.68
2024-02-05T16:44:34.885Z,1.08
2024-02-05T16:47:03.872Z,0.90
2024-02-05T16:49:35.067Z,1.10
2024-02-05T16:52:06.015Z,0.85
2024-02-05T16:54:34.987Z,1.08
2024-02-05T16:57:03.691Z,1.00
2024-02-05T16:59:32.406Z,1.30
2024-02-05T17:02:19.993Z,1.17
2024-02-05T17:04:48.992Z,1.50
2024-02-05T17:07:19.296Z,1.25
2024-02-05T17:09:48.989Z,0.90
2024-02-05T17:15:20.135Z,0.90
2024-02-05T17:18:08.607Z,1.20
2024-02-05T17:20:40.124Z,0.85
2024-02-05T17:23:15.591Z,1.42
2024-02-05T17:25:59.741Z,1.02
2024-02-05T17:28:49.033Z,1.05
2024-02-05T17:31:18.170Z,0.80
2024-02-05T17:33:56.500Z,1.10
2024-02-05T17:36:25.649Z,1.17
2024-02-05T17:39:00.511Z,1.00
2024-02-05T17:45:55.407Z,1.02
2024-02-05T17:49:18.619Z,0.90
2024-02-05T17:53:05.607Z,1.10
2024-02-05T18:01:27.023Z,0.88
2024-02-05T18:07:21.973Z,0.95
2024-02-05T18:10:33.598Z,0.98
2024-02-05T18:13:08.954Z,1.15
2024-02-05T18:16:12.011Z,0.80
2024-02-05T18:18:56.866Z,1.20
2024-02-05T18:22:02.962Z,1.00
2024-02-05T18:25:39.338Z,0.95
2024-02-05T18:28:14.881Z,1.08
2024-02-05T18:30:48.417Z,0.90
2024-02-05T18:33:26.356Z,0.82
2024-02-05T18:36:14.767Z,1.00
2024-02-05T18:38:46.733Z,1.05
2024-02-05T18:41:43.118Z,1.23
2024-02-05T18:44:33.483Z,1.00
2024-02-05T18:47:34.304Z,0.90
2024-02-05T18:50:01.841Z,1.10
2024-02-05T18:52:46.600Z,1.25
2024-02-05T18:55:21.032Z,1.00
2024-02-05T18:57:50.184Z,1.33
2024-02-05T19:00:22.730Z,1.50
2024-02-05T19:03:26.087Z,1.08
2024-02-05T19:07:35.623Z,1.00
2024-02-05T19:10:48.799Z,1.13
2024-02-05T19:13:54.576Z,0.98
2024-02-05T19:17:06.335Z,0.90
2024-02-05T19:24:05.562Z,1.13
2024-02-05T19:26:35.892Z,1.13
2024-02-05T19:29:23.116Z,1.20
2024-02-05T19:31:52.577Z,1.00
2024-02-05T19:34:22.288Z,1.10
2024-02-05T19:36:53.468Z,1.00
2024-02-05T19:39:30.281Z,0.82
2024-02-05T19:42:02.256Z,1.17
2024-02-05T19:44:31.155Z,0.88
2024-02-05T19:47:00.924Z,1.17
2024-02-05T19:50:37.064Z,1.80
2024-02-05T19:53:06.636Z,0.88
2024-02-05T19:55:54.272Z,1.25
2024-02-05T19:58:24.684Z,0.80
2024-02-05T20:00:53.593Z,0.90
2024-02-05T20:03:22.454Z,0.82
2024-02-05T20:05:51.163Z,1.05
2024-02-05T20:08:19.896Z,0.57
2024-02-05T20:10:48.668Z,1.52
2024-02-05T20:13:18.193Z,1.20
2024-02-05T20:15:48.444Z,0.88
2024-02-05T20:18:17.553Z,1.13
2024-02-05T20:20:46.370Z,0.77
2024-02-05T20:23:15.185Z,1.05
2024-02-05T20:25:44.196Z,1.13
2024-02-05T20:28:14.145Z,1.00
2024-02-05T20:30:43.011Z,0.90
2024-02-05T20:33:13.258Z,1.02
2024-02-05T20:35:44.536Z,1.10
2024-02-05T20:38:13.398Z,1.15
2024-02-05T20:40:42.306Z,1.17
2024-02-05T20:43:11.523Z,1.70
2024-02-05T20:45:40.455Z,1.40
2024-02-05T20:48:09.671Z,1.27
2024-02-05T20:50:40.075Z,1.30
2024-02-05T20:53:09.362Z,1.92
2024-02-05T20:55:38.428Z,1.60
2024-02-05T20:58:11.817Z,1.70
2024-02-05T21:00:40.618Z,1.80
2024-02-05T21:03:09.389Z,1.55
2024-02-05T21:05:39.542Z,1.42
2024-02-05T21:08:09.109Z,1.90
2024-02-05T21:10:38.110Z,1.60
2024-02-05T21:13:08.819Z,1.60
2024-02-05T21:15:38.012Z,1.70
2024-02-05T21:18:09.282Z,1.65
2024-02-05T21:20:41.048Z,1.75
2024-02-05T21:23:09.842Z,1.70
2024-02-05T21:25:38.766Z,1.60
2024-02-05T21:28:07.887Z,1.60
2024-02-05T21:30:36.670Z,1.67
2024-02-05T21:33:05.881Z,1.40
2024-02-05T21:35:34.978Z,1.40
2024-02-05T21:38:06.084Z,1.58
2024-02-05T21:40:36.629Z,1.30
2024-02-05T21:43:06.291Z,1.40
2024-02-05T21:45:35.274Z,1.30
2024-02-05T21:48:04.140Z,1.50
2024-02-05T21:50:33.534Z,1.35
2024-02-05T21:53:02.354Z,1.10
2024-02-05T21:55:32.774Z,1.70
2024-02-05T21:58:01.748Z,1.58
2024-02-05T22:00:30.547Z,1.60
2024-02-05T22:02:59.338Z,1.50
2024-02-05T22:05:28.370Z,1.40
2024-02-05T22:07:57.380Z,1.58
2024-02-05T22:10:26.242Z,1.73
2024-02-05T22:12:56.473Z,1.60
2024-02-05T22:15:43.687Z,1.85
2024-02-05T22:18:12.576Z,1.42
2024-02-05T22:20:41.383Z,1.67
2024-02-05T22:23:10.108Z,1.52
2024-02-05T22:25:38.921Z,1.95
2024-02-05T22:28:09.268Z,1.60
2024-02-05T22:30:38.044Z,2.22
2024-02-05T22:33:07.322Z,1.52
2024-02-05T22:35:37.217Z,2.10
2024-02-05T22:38:06.467Z,1.50
2024-02-05T22:40:35.690Z,2.58
2024-02-05T22:43:23.031Z,2.17
2024-02-05T22:45:53.342Z,2.20
2024-02-05T22:48:22.226Z,2.17
2024-02-05T22:50:51.012Z,2.10
2024-02-05T22:53:19.961Z,2.63
2024-02-05T22:55:48.698Z,2.33
2024-02-05T22:58:17.537Z,2.13
2024-02-05T23:00:46.612Z,2.10
2024-02-05T23:03:16.713Z,1.55
2024-02-05T23:05:46.399Z,1.85
2024-02-05T23:08:15.123Z,2.58
2024-02-05T23:10:43.735Z,2.25
2024-02-05T23:13:13.345Z,3.13
2024-02-05T23:15:42.116Z,1.90
2024-02-05T23:18:11.248Z,1.83
2024-02-05T23:20:41.380Z,1.77
2024-02-05T23:23:10.073Z,1.95
2024-02-05T23:25:41.513Z,2.28
2024-02-05T23:28:12.162Z,2.20
2024-02-05T23:30:40.842Z,2.03
2024-02-05T23:33:09.598Z,1.58
2024-02-05T23:35:38.818Z,2.05
2024-02-05T23:38:08.818Z,2.60
2024-02-05T23:40:37.514Z,2.70
2024-02-05T23:43:06.512Z,1.58
2024-02-05T23:45:37.559Z,2.40
2024-02-05T23:48:07.006Z,2.33
2024-02-05T23:50:35.798Z,1.73
2024-02-05T23:53:04.427Z,1.88
2024-02-05T23:55:34.559Z,2.55
2024-02-05T23:58:03.401Z,2.25
